Time;durP1;ratioP1;P1;durP2;ratioP2;P2;SDS_P1;SDS_P2;PMS_P1;PMS_P2;Temp;Humidity;BMP_temperature;BMP_pressure;BME280_temperature;BME280_humidity;BME280_pressure;Samples;Min_cycle;Max_cycle;Signal;HPM_P1;HPM_P2
2021/10/09 00:01:07;;;;;;;24.13;17.98;;;11.00;99.90;;;;;;5136666;27;20031;-67
2021/10/09 00:03:33;;;;;;;25.60;18.77;;;11.00;99.90;;;;;;5137796;27;20034;-66
2021/10/09 00:05:59;;;;;;;29.48;19.50;;;10.90;99.90;;;;;;5136543;27;20072;-67
2021/10/09 00:08:24;;;;;;;27.15;19.05;;;10.90;99.90;;;;;;5137705;27;20023;-68
2021/10/09 00:10:50;;;;;;;23.80;17.92;;;10.80;99.90;;;;;;5137021;27;20019;-66
2021/10/09 00:13:16;;;;;;;29.13;19.02;;;10.80;99.90;;;;;;5118987;27;20051;-62
2021/10/09 00:15:42;;;;;;;29.80;18.77;;;10.80;99.90;;;;;;5118918;27;20141;-64
2021/10/09 00:18:07;;;;;;;28.85;18.80;;;10.90;99.90;;;;;;5137167;27;20082;-62
2021/10/09 00:20:33;;;;;;;36.22;21.10;;;10.80;99.90;;;;;;5137082;27;20043;-64
2021/10/09 00:22:59;;;;;;;35.83;21.63;;;10.90;99.90;;;;;;5136062;27;20027;-64
2021/10/09 00:25:25;;;;;;;30.70;20.83;;;10.80;99.90;;;;;;5119218;27;20059;-65
2021/10/09 00:27:51;;;;;;;30.80;19.88;;;10.80;99.90;;;;;;5136051;27;20132;-63
2021/10/09 00:30:17;;;;;;;33.17;21.63;;;10.80;99.90;;;;;;5135956;27;20068;-63
2021/10/09 00:32:42;;;;;;;35.33;20.05;;;10.80;99.90;;;;;;5135727;27;20024;-63
2021/10/09 00:35:08;;;;;;;25.48;18.77;;;10.70;99.90;;;;;;5135729;27;20023;-63
2021/10/09 00:37:34;;;;;;;28.98;18.80;;;10.70;99.90;;;;;;5136783;27;20015;-63
2021/10/09 00:40:00;;;;;;;28.63;19.70;;;10.60;99.90;;;;;;5118134;27;20035;-64
2021/10/09 00:42:25;;;;;;;22.75;17.83;;;10.60;99.90;;;;;;5135385;27;20027;-65
2021/10/09 00:44:51;;;;;;;29.48;19.70;;;10.60;99.90;;;;;;5135767;27;20444;-68
2021/10/09 00:47:18;;;;;;;24.70;17.95;;;10.60;99.90;;;;;;5135440;27;20033;-68
2021/10/09 00:49:43;;;;;;;28.30;19.02;;;10.60;99.90;;;;;;5118192;27;20385;-68
2021/10/09 00:52:10;;;;;;;24.40;17.88;;;10.50;99.90;;;;;;5118176;27;20126;-67
2021/10/09 00:54:42;;;;;;;27.45;18.25;;;10.50;99.90;;;;;;5135297;27;20054;-68
2021/10/09 00:57:08;;;;;;;29.38;19.13;;;10.50;99.90;;;;;;5135555;27;20015;-69
2021/10/09 00:59:37;;;;;;;28.60;17.80;;;10.50;99.90;;;;;;5118140;27;20113;-69
2021/10/09 01:02:03;;;;;;;27.67;18.77;;;10.50;99.90;;;;;;5117921;27;20031;-70
2021/10/09 01:04:29;;;;;;;24.95;18.33;;;10.50;99.90;;;;;;5117362;27;20064;-70
2021/10/09 01:06:56;;;;;;;28.15;19.08;;;10.50;99.90;;;;;;5117977;27;20027;-70
2021/10/09 01:09:21;;;;;;;24.88;18.45;;;10.50;99.90;;;;;;5134943;27;20478;-70
2021/10/09 01:11:47;;;;;;;22.83;17.70;;;10.50;99.90;;;;;;5134968;27;20023;-69
2021/10/09 01:14:12;;;;;;;30.17;19.88;;;10.50;99.90;;;;;;5134835;27;20047;-68
2021/10/09 01:16:38;;;;;;;24.83;19.33;;;10.50;99.90;;;;;;5134466;27;20043;-70
2021/10/09 01:19:07;;;;;;;27.23;19.75;;;10.60;99.90;;;;;;5134442;27;20039;-70
2021/10/09 01:21:43;;;;;;;29.65;19.55;;;10.60;99.90;;;;;;5117451;27;20032;-65
2021/10/09 01:24:09;;;;;;;29.73;19.25;;;10.60;99.90;;;;;;5134643;27;20011;-65
2021/10/09 01:26:35;;;;;;;32.50;20.05;;;10.60;99.90;;;;;;5117627;27;20023;-64
2021/10/09 01:29:01;;;;;;;37.35;21.17;;;10.70;99.90;;;;;;5134644;27;20030;-64
2021/10/09 01:31:27;;;;;;;34.17;19.58;;;10.60;99.90;;;;;;5134550;27;20413;-65
2021/10/09 01:33:52;;;;;;;33.65;20.13;;;10.70;99.90;;;;;;5134494;27;20034;-64
2021/10/09 01:36:20;;;;;;;32.35;20.77;;;10.60;99.90;;;;;;5117556;27;20030;-64
2021/10/09 01:38:52;;;;;;;30.15;18.92;;;10.70;99.90;;;;;;5134197;27;20504;-64
2021/10/09 01:41:18;;;;;;;30.55;18.95;;;10.60;99.90;;;;;;5134362;27;20080;-64
2021/10/09 01:43:44;;;;;;;33.42;19.23;;;10.60;99.90;;;;;;5134403;27;20023;-63
2021/10/09 01:46:10;;;;;;;33.85;20.30;;;10.60;99.90;;;;;;5134283;27;20109;-66
2021/10/09 01:48:37;;;;;;;31.42;19.10;;;10.60;99.90;;;;;;5134669;27;20482;-64
2021/10/09 01:51:05;;;;;;;31.88;19.95;;;10.60;99.90;;;;;;5117148;27;20027;-63
2021/10/09 01:53:30;;;;;;;29.23;19.73;;;10.60;99.90;;;;;;5134475;27;20023;-64
2021/10/09 01:55:56;;;;;;;37.47;21.60;;;10.50;99.90;;;;;;5099901;27;20495;-68
2021/10/09 01:58:22;;;;;;;37.63;23.13;;;10.50;99.90;;;;;;5134222;27;20124;-66
2021/10/09 02:00:48;;;;;;;34.83;21.95;;;10.60;99.90;;;;;;5133988;27;20043;-66
2021/10/09 02:03:16;;;;;;;26.85;17.95;;;10.60;99.90;;;;;;5134361;27;20019;-66
2021/10/09 02:05:42;;;;;;;26.35;18.83;;;10.50;99.90;;;;;;5117058;27;20015;-66
2021/10/09 02:08:07;;;;;;;28.00;20.98;;;10.50;99.90;;;;;;5135074;27;20019;-66
2021/10/09 02:10:38;;;;;;;29.08;19.58;;;10.50;99.90;;;;;;5134934;27;20079;-66
2021/10/09 02:13:06;;;;;;;26.00;18.15;;;10.40;99.90;;;;;;5134981;27;20024;-66
2021/10/09 02:15:42;;;;;;;27.45;18.70;;;10.40;99.90;;;;;;5133809;27;20496;-65
2021/10/09 02:26:18;;;;;;;26.75;17.58;;;10.30;99.90;;;;;;5134952;27;20041;-63
2021/10/09 02:28:44;;;;;;;27.90;17.80;;;10.30;99.90;;;;;;5099341;27;20023;-71
2021/10/09 02:31:10;;;;;;;30.55;19.35;;;10.20;99.90;;;;;;5116362;27;20027;-69
2021/10/09 02:33:35;;;;;;;29.23;20.23;;;10.30;99.90;;;;;;5134556;27;20529;-71
2021/10/09 02:36:01;;;;;;;29.83;18.92;;;10.30;99.90;;;;;;5099226;27;20031;-69
2021/10/09 02:38:26;;;;;;;32.58;20.60;;;10.30;99.90;;;;;;5116186;27;20442;-72
2021/10/09 02:40:52;;;;;;;29.38;19.40;;;10.30;99.90;;;;;;5133111;27;20126;-69
2021/10/09 02:43:18;;;;;;;34.08;21.27;;;10.30;99.90;;;;;;5116049;27;20083;-69
2021/10/09 02:45:43;;;;;;;27.13;20.35;;;10.30;99.90;;;;;;5134586;27;20091;-69
2021/10/09 02:48:10;;;;;;;28.95;20.55;;;10.30;99.90;;;;;;5133209;27;20016;-69
2021/10/09 02:50:36;;;;;;;25.23;19.45;;;10.30;99.90;;;;;;5133375;27;20500;-73
2021/10/09 02:53:02;;;;;;;28.40;18.63;;;10.30;99.90;;;;;;5133305;27;20059;-71
2021/10/09 02:55:28;;;;;;;31.08;20.15;;;10.30;99.90;;;;;;5133134;27;20024;-71
2021/10/09 02:57:53;;;;;;;32.83;18.73;;;10.30;99.90;;;;;;5115846;27;20517;-70
2021/10/09 03:00:20;;;;;;;26.38;18.20;;;10.20;99.90;;;;;;5135020;27;20039;-69
2021/10/09 03:02:46;;;;;;;27.15;17.73;;;10.20;99.90;;;;;;5115730;28;20022;-68
2021/10/09 03:05:12;;;;;;;26.42;19.40;;;10.10;99.90;;;;;;5115812;27;20031;-68
2021/10/09 03:07:39;;;;;;;30.98;18.90;;;10.20;99.90;;;;;;5115817;27;20502;-65
2021/10/09 03:10:06;;;;;;;29.58;19.58;;;10.10;99.90;;;;;;5133445;27;20157;-66
2021/10/09 03:12:31;;;;;;;31.95;19.38;;;10.10;99.90;;;;;;5098770;27;20032;-65
2021/10/09 03:14:57;;;;;;;28.10;19.23;;;10.10;99.90;;;;;;5115971;28;20023;-63
2021/10/09 03:17:23;;;;;;;30.00;19.02;;;10.00;99.90;;;;;;5132730;28;20043;-63
2021/10/09 03:19:48;;;;;;;31.85;19.70;;;10.00;99.90;;;;;;5115574;28;20139;-65
2021/10/09 03:22:14;;;;;;;32.38;21.75;;;10.10;99.90;;;;;;5098635;28;20027;-63
2021/10/09 03:24:40;;;;;;;30.02;19.58;;;10.10;99.90;;;;;;5115508;28;20027;-63
2021/10/09 03:27:06;;;;;;;27.58;19.58;;;10.00;99.90;;;;;;5134053;27;20015;-63
2021/10/09 03:29:32;;;;;;;27.40;18.00;;;10.00;99.90;;;;;;5119152;27;20027;-63
2021/10/09 03:31:58;;;;;;;31.33;19.85;;;10.00;99.90;;;;;;5119901;27;20023;-62
2021/10/09 03:34:23;;;;;;;27.65;18.92;;;10.00;99.90;;;;;;5137411;27;20482;-64
2021/10/09 03:36:49;;;;;;;32.78;19.70;;;10.00;99.90;;;;;;5137618;27;20435;-63
2021/10/09 03:39:18;;;;;;;37.83;22.80;;;10.00;99.90;;;;;;5103560;27;20035;-63
2021/10/09 03:41:50;;;;;;;34.88;21.05;;;9.90;99.90;;;;;;5136790;27;20465;-64
2021/10/09 03:44:15;;;;;;;31.10;20.50;;;9.90;99.90;;;;;;5120412;27;20063;-67
2021/10/09 03:46:48;;;;;;;31.83;20.85;;;9.80;99.90;;;;;;5136690;27;20110;-63
2021/10/09 03:49:24;;;;;;;36.30;21.85;;;9.80;99.90;;;;;;5138137;27;20028;-66
2021/10/09 03:54:33;;;;;;;32.07;20.93;;;9.80;99.90;;;;;;5122572;27;20045;-66
2021/10/09 03:56:59;;;;;;;30.55;20.33;;;9.90;99.90;;;;;;5119337;27;20031;-66
2021/10/09 03:59:25;;;;;;;42.58;24.05;;;9.90;99.90;;;;;;5136394;27;20035;-66
2021/10/09 04:01:50;;;;;;;41.50;22.00;;;9.90;99.90;;;;;;5136445;27;20027;-66
2021/10/09 04:04:16;;;;;;;47.92;24.35;;;9.90;99.90;;;;;;5119490;27;20031;-67
2021/10/09 04:06:42;;;;;;;37.05;22.77;;;9.90;99.90;;;;;;5119660;27;20393;-72
2021/10/09 04:09:07;;;;;;;36.35;22.55;;;9.90;99.90;;;;;;5138151;27;20020;-69
2021/10/09 04:11:33;;;;;;;40.42;21.98;;;9.80;99.90;;;;;;5136252;27;20058;-72
2021/10/09 04:13:58;;;;;;;32.20;20.85;;;9.90;99.90;;;;;;5136558;27;20069;-71
2021/10/09 04:16:24;;;;;;;33.97;22.63;;;9.90;99.90;;;;;;5118810;27;20027;-68
2021/10/09 04:18:50;;;;;;;34.15;21.65;;;9.80;99.90;;;;;;5119007;27;20072;-65
2021/10/09 04:21:15;;;;;;;35.15;20.95;;;9.80;99.90;;;;;;5136129;27;20034;-65
2021/10/09 04:23:41;;;;;;;35.05;19.73;;;9.80;99.90;;;;;;5118786;27;20027;-67
2021/10/09 04:26:07;;;;;;;32.10;20.70;;;9.80;99.90;;;;;;5135933;27;20449;-65
2021/10/09 04:28:34;;;;;;;36.38;22.23;;;9.80;99.90;;;;;;5135934;27;20079;-67
2021/10/09 04:31:00;;;;;;;36.78;20.23;;;9.70;99.90;;;;;;5137432;27;20116;-67
2021/10/09 04:33:26;;;;;;;30.90;19.30;;;9.70;99.90;;;;;;5137044;27;20039;-67
2021/10/09 04:35:51;;;;;;;30.70;19.60;;;9.70;99.90;;;;;;5136814;27;20031;-64
2021/10/09 04:38:17;;;;;;;28.80;20.00;;;9.70;99.90;;;;;;5137119;27;20481;-66
2021/10/09 04:40:42;;;;;;;32.15;19.98;;;9.60;99.90;;;;;;5134686;27;20483;-65
2021/10/09 04:43:08;;;;;;;29.85;19.35;;;9.60;99.90;;;;;;5135759;27;20062;-64
2021/10/09 04:45:34;;;;;;;41.22;22.83;;;9.60;99.90;;;;;;5118452;27;20027;-65
2021/10/09 04:48:03;;;;;;;33.97;21.10;;;9.50;99.90;;;;;;5118319;27;20019;-64
2021/10/09 04:50:28;;;;;;;34.80;21.75;;;9.60;99.90;;;;;;5135575;27;20019;-65
2021/10/09 04:52:54;;;;;;;34.95;21.92;;;9.60;99.90;;;;;;5118131;27;20027;-65
2021/10/09 04:55:19;;;;;;;38.15;22.85;;;9.60;99.90;;;;;;5135399;27;20031;-64
2021/10/09 04:57:45;;;;;;;34.67;22.67;;;9.70;99.90;;;;;;5135149;27;20020;-64
2021/10/09 05:00:11;;;;;;;36.05;23.98;;;9.70;99.90;;;;;;5135148;27;20043;-64
2021/10/09 05:02:37;;;;;;;31.98;22.13;;;9.60;99.90;;;;;;5135463;27;20019;-64
2021/10/09 05:05:03;;;;;;;33.28;21.73;;;9.60;99.90;;;;;;5135174;27;20084;-64
2021/10/09 05:07:28;;;;;;;31.77;20.17;;;9.70;99.90;;;;;;5135065;27;20054;-65
2021/10/09 05:09:54;;;;;;;38.70;22.55;;;9.70;99.90;;;;;;5117880;27;20023;-64
2021/10/09 05:12:19;;;;;;;30.67;20.95;;;9.70;99.90;;;;;;5136144;27;20034;-65
2021/10/09 05:14:45;;;;;;;37.50;23.02;;;9.70;99.90;;;;;;5135289;27;20027;-65
2021/10/09 05:17:12;;;;;;;34.20;22.50;;;9.70;99.90;;;;;;5135209;27;20039;-66
2021/10/09 05:19:37;;;;;;;35.10;22.15;;;9.60;99.90;;;;;;5134806;27;20042;-64
2021/10/09 05:22:03;;;;;;;37.33;22.02;;;9.60;99.90;;;;;;5117663;27;20023;-63
2021/10/09 05:24:29;;;;;;;30.67;22.02;;;9.50;99.90;;;;;;5117455;27;20457;-64
2021/10/09 05:26:55;;;;;;;32.78;21.13;;;9.50;99.90;;;;;;5134701;27;20027;-65
2021/10/09 05:29:21;;;;;;;32.40;20.67;;;9.50;99.90;;;;;;5117579;27;20019;-67
2021/10/09 05:31:49;;;;;;;35.25;23.10;;;9.50;99.90;;;;;;5134753;27;20499;-65
2021/10/09 05:34:14;;;;;;;34.60;21.38;;;9.50;99.90;;;;;;5134567;27;20023;-66
2021/10/09 05:36:40;;;;;;;34.13;20.92;;;9.60;99.90;;;;;;5117333;27;20030;-68
2021/10/09 05:39:05;;;;;;;32.50;21.98;;;9.60;99.90;;;;;;5117340;27;20089;-69
2021/10/09 05:41:31;;;;;;;36.83;22.75;;;9.60;99.90;;;;;;5135654;27;20019;-66
2021/10/09 05:43:57;;;;;;;32.95;21.85;;;9.60;99.90;;;;;;5134410;27;20061;-69
2021/10/09 05:46:23;;;;;;;37.70;23.45;;;9.60;99.90;;;;;;5117237;27;20469;-66
2021/10/09 05:48:49;;;;;;;35.95;22.92;;;9.60;99.90;;;;;;5134474;27;20015;-67
2021/10/09 05:56:23;;;;;;;33.85;22.48;;;9.50;99.90;;;;;;5134580;27;20035;-66
2021/10/09 05:59:07;;;;;;;34.55;22.63;;;9.50;99.90;;;;;;5135713;27;20019;-71
2021/10/09 06:45:04;;;;;;;35.55;23.75;;;10.10;99.90;;;;;;5134874;27;20087;-65
2021/10/09 06:47:53;;;;;;;37.35;22.63;;;10.20;99.90;;;;;;5133472;27;20541;-66
2021/10/09 07:00:43;;;;;;;43.08;24.52;;;10.80;99.90;;;;;;5133363;27;20066;-70
2021/10/09 07:03:10;;;;;;;37.67;23.33;;;11.40;99.90;;;;;;5133258;27;20051;-69
2021/10/09 07:05:42;;;;;;;39.60;22.10;;;11.70;99.90;;;;;;5133209;27;20046;-70
2021/10/09 07:08:10;;;;;;;36.03;21.10;;;12.10;99.90;;;;;;5133244;27;20023;-69
2021/10/09 07:10:42;;;;;;;31.75;22.08;;;12.50;99.90;;;;;;5133283;27;20462;-70
2021/10/09 07:13:08;;;;;;;33.67;20.40;;;12.80;99.90;;;;;;5133112;27;20031;-72
2021/10/09 07:15:35;;;;;;;33.22;19.77;;;12.90;99.90;;;;;;5116109;28;20020;-68
2021/10/09 07:18:02;;;;;;;30.77;20.98;;;12.80;99.90;;;;;;5134161;27;20047;-66
2021/10/09 07:20:28;;;;;;;34.67;20.13;;;12.70;99.90;;;;;;5116416;28;20079;-69
2021/10/09 07:22:54;;;;;;;35.15;21.20;;;12.70;99.90;;;;;;5133510;28;20086;-69
2021/10/09 07:25:20;;;;;;;33.17;21.42;;;12.70;99.90;;;;;;5133880;28;20102;-74
2021/10/09 07:27:46;;;;;;;31.45;20.33;;;12.60;99.90;;;;;;5135733;28;20064;-74
2021/10/09 07:30:12;;;;;;;36.22;21.77;;;12.50;99.90;;;;;;5135240;28;20035;-73
2021/10/09 07:32:38;;;;;;;35.38;21.58;;;12.40;99.90;;;;;;5099339;28;20030;-73
2021/10/09 07:35:04;;;;;;;30.65;21.50;;;12.50;99.90;;;;;;5118567;28;20027;-74
2021/10/09 07:37:30;;;;;;;32.45;21.00;;;13.20;99.90;;;;;;5119184;28;20411;-73
2021/10/09 07:39:55;;;;;;;27.08;19.50;;;14.10;99.90;;;;;;5134993;28;20039;-73
2021/10/09 07:42:21;;;;;;;29.70;19.67;;;14.80;99.90;;;;;;5099622;28;20016;-71
2021/10/09 07:44:49;;;;;;;26.60;17.23;;;15.50;99.90;;;;;;5116403;28;20504;-70
2021/10/09 07:47:15;;;;;;;25.13;17.25;;;16.30;99.90;;;;;;5116274;28;20557;-68
2021/10/09 07:49:41;;;;;;;26.20;18.13;;;17.00;99.90;;;;;;5133141;28;20023;-75
2021/10/09 07:52:07;;;;;;;28.95;18.02;;;17.70;99.90;;;;;;5133252;28;20396;-73
2021/10/09 07:54:32;;;;;;;24.27;16.33;;;18.40;99.90;;;;;;5115923;28;20118;-71
2021/10/09 07:56:58;;;;;;;21.00;15.88;;;19.00;99.90;;;;;;5134328;27;20565;-73
2021/10/09 07:59:24;;;;;;;24.23;17.08;;;19.60;99.90;;;;;;5133297;28;20023;-75
2021/10/09 08:01:49;;;;;;;24.00;15.95;;;19.90;99.90;;;;;;5116326;28;20389;-71
2021/10/09 08:04:16;;;;;;;23.17;15.90;;;19.70;99.90;;;;;;5133321;28;20442;-68
2021/10/09 08:06:42;;;;;;;22.50;16.30;;;19.80;99.90;;;;;;5116117;28;20027;-69
2021/10/09 08:09:08;;;;;;;25.67;16.73;;;20.30;99.90;;;;;;5115359;28;20058;-74
2021/10/09 08:11:34;;;;;;;22.60;16.50;;;20.60;99.90;;;;;;5132723;28;20031;-69
2021/10/09 08:13:59;;;;;;;26.05;16.95;;;20.70;99.90;;;;;;5132520;27;20074;-69
2021/10/09 08:16:25;;;;;;;24.27;16.20;;;20.30;99.90;;;;;;5136789;27;20027;-70
2021/10/09 08:18:51;;;;;;;22.55;14.73;;;20.50;99.90;;;;;;5119651;27;20409;-69
2021/10/09 08:21:22;;;;;;;22.17;14.70;;;20.60;99.90;;;;;;5137618;27;20026;-68
2021/10/09 08:23:55;;;;;;;26.45;16.42;;;21.00;99.90;;;;;;5136254;27;20027;-71
2021/10/09 08:40:14;;;;;;;23.35;16.17;;;22.30;98.00;;;;;;5136088;27;20454;-68
2021/10/09 08:42:41;;;;;;;26.92;16.63;;;22.50;97.90;;;;;;5118647;27;20035;-67
2021/10/09 08:45:07;;;;;;;25.15;16.80;;;23.10;97.30;;;;;;5118849;27;20028;-67
2021/10/09 08:47:36;;;;;;;19.25;14.45;;;23.80;96.40;;;;;;5119235;27;20026;-68
2021/10/09 08:50:02;;;;;;;20.83;16.52;;;24.30;96.90;;;;;;5135737;27;20011;-69
2021/10/09 08:52:29;;;;;;;22.35;15.98;;;24.30;95.30;;;;;;5136002;27;20046;-68
2021/10/09 08:54:56;;;;;;;22.25;15.32;;;23.50;95.80;;;;;;5135492;27;20023;-68
2021/10/09 08:57:24;;;;;;;22.05;15.95;;;23.10;96.10;;;;;;5118590;27;20098;-68
2021/10/09 08:59:56;;;;;;;21.17;16.35;;;23.20;95.90;;;;;;5136685;27;20031;-68
2021/10/09 09:02:27;;;;;;;19.45;14.82;;;23.20;95.80;;;;;;5136656;27;20038;-68
2021/10/09 09:35:52;;;;;;;20.13;15.25;;;22.50;95.80;;;;;;5135269;27;20035;-69
2021/10/09 09:40:57;;;;;;;24.05;15.32;;;22.20;96.40;;;;;;5135084;27;20049;-71
2021/10/09 09:43:23;;;;;;;20.92;15.88;;;22.30;96.00;;;;;;5117571;27;20023;-72
2021/10/09 09:45:49;;;;;;;21.88;15.13;;;22.40;95.90;;;;;;5117743;27;20031;-71
2021/10/09 09:48:14;;;;;;;21.10;15.48;;;22.40;96.00;;;;;;5117932;27;20111;-69
2021/10/09 09:50:40;;;;;;;21.42;15.38;;;22.70;96.30;;;;;;5118204;27;20460;-70
2021/10/09 09:53:06;;;;;;;20.40;16.00;;;23.20;95.80;;;;;;5134368;27;20028;-72
2021/10/09 09:55:32;;;;;;;25.25;17.08;;;23.70;95.60;;;;;;5117191;27;20023;-72
2021/10/09 09:57:59;;;;;;;22.92;15.65;;;23.60;94.60;;;;;;5134355;27;20389;-68
2021/10/09 10:00:28;;;;;;;23.35;17.80;;;23.50;95.00;;;;;;5116990;27;20046;-71
2021/10/09 10:02:55;;;;;;;22.65;16.60;;;23.60;94.60;;;;;;5134221;27;20022;-72
2021/10/09 10:05:26;;;;;;;21.85;16.08;;;23.70;94.50;;;;;;5135387;27;20393;-72
2021/10/09 10:07:52;;;;;;;25.80;15.50;;;23.90;94.60;;;;;;5134198;27;20019;-71
2021/10/09 10:10:18;;;;;;;26.50;17.13;;;23.60;94.50;;;;;;5134172;27;20034;-75
2021/10/09 10:12:46;;;;;;;20.75;15.82;;;22.90;95.40;;;;;;5134077;27;20023;-69
2021/10/09 10:15:13;;;;;;;24.35;16.88;;;21.40;96.90;;;;;;5133886;27;20015;-72
2021/10/09 10:17:46;;;;;;;24.83;15.95;;;20.10;98.20;;;;;;5116679;27;20043;-70
2021/10/09 10:20:20;;;;;;;24.45;15.85;;;19.20;99.20;;;;;;5134136;27;20143;-69
2021/10/09 10:22:47;;;;;;;30.67;17.10;;;18.50;99.90;;;;;;5133857;27;20019;-68
2021/10/09 10:25:33;;;;;;;27.60;17.27;;;18.00;99.90;;;;;;5133680;27;20122;-72
2021/10/09 10:28:00;;;;;;;35.10;16.48;;;17.50;99.90;;;;;;5134947;27;20023;-71
2021/10/09 10:30:30;;;;;;;26.20;17.20;;;17.20;99.90;;;;;;5135033;27;20076;-70
2021/10/09 10:32:59;;;;;;;28.30;19.40;;;16.90;99.90;;;;;;5116465;27;20031;-70
2021/10/09 10:35:33;;;;;;;24.73;17.10;;;16.60;99.90;;;;;;5133652;27;20504;-70
2021/10/09 10:38:22;;;;;;;27.45;17.70;;;16.20;99.90;;;;;;5134145;27;20027;-71
2021/10/09 10:40:57;;;;;;;28.60;17.48;;;15.90;99.90;;;;;;5132960;27;20050;-71
2021/10/09 10:43:37;;;;;;;31.95;18.52;;;15.70;99.90;;;;;;5135134;27;20023;-71
2021/10/09 10:51:43;;;;;;;27.45;18.77;;;15.30;99.90;;;;;;5133985;27;20113;-70
2021/10/09 10:56:58;;;;;;;26.52;18.23;;;14.90;99.90;;;;;;5117553;27;20054;-71
2021/10/09 10:59:45;;;;;;;29.23;18.13;;;14.80;99.90;;;;;;5134761;27;20031;-72
2021/10/09 11:02:28;;;;;;;26.55;16.90;;;14.80;99.90;;;;;;5117264;27;20035;-70
2021/10/09 11:04:59;;;;;;;27.60;17.88;;;14.70;99.90;;;;;;5116334;27;20083;-71
2021/10/09 11:07:36;;;;;;;29.25;17.58;;;14.70;99.90;;;;;;5133201;27;20106;-70
2021/10/09 11:10:16;;;;;;;34.33;19.85;;;14.70;99.90;;;;;;5116390;28;20019;-70
2021/10/09 11:12:44;;;;;;;33.60;20.42;;;14.70;99.90;;;;;;5134051;27;20019;-70
2021/10/09 11:15:19;;;;;;;35.47;21.05;;;14.70;99.90;;;;;;5133668;27;20069;-69
2021/10/09 11:17:55;;;;;;;30.15;20.73;;;14.70;99.90;;;;;;5134395;27;20535;-70
2021/10/09 11:20:26;;;;;;;30.33;20.05;;;14.70;99.90;;;;;;5135413;27;20027;-67
2021/10/09 11:22:53;;;;;;;35.92;20.90;;;14.70;99.90;;;;;;5139932;27;20015;-65
2021/10/09 11:25:36;;;;;;;30.88;18.58;;;14.70;99.90;;;;;;5142606;27;20481;-68
2021/10/09 11:28:16;;;;;;;33.03;19.25;;;14.70;99.90;;;;;;5138698;27;20046;-66
2021/10/09 11:30:42;;;;;;;34.70;19.92;;;14.70;99.90;;;;;;5133902;28;20026;-66
2021/10/09 11:33:08;;;;;;;35.53;21.65;;;14.70;99.90;;;;;;5135186;27;20114;-66
2021/10/09 11:35:39;;;;;;;32.05;20.58;;;14.70;99.90;;;;;;5117302;28;20103;-66
2021/10/09 11:38:27;;;;;;;30.20;18.83;;;14.70;99.90;;;;;;5134485;27;20015;-68
2021/10/09 11:40:59;;;;;;;32.65;19.00;;;14.80;99.90;;;;;;5134180;27;20070;-65
2021/10/09 11:47:17;;;;;;;25.33;18.08;;;14.80;99.90;;;;;;5111613;28;20398;-66
2021/10/09 11:55:21;;;;;;;33.78;18.77;;;14.80;99.90;;;;;;5108714;27;20297;-67
2021/10/09 11:57:48;;;;;;;25.90;17.98;;;14.90;99.90;;;;;;5119794;27;20030;-65
2021/10/09 12:00:29;;;;;;;28.45;18.27;;;14.90;99.90;;;;;;5136943;27;20080;-66
2021/10/09 12:02:59;;;;;;;27.88;17.08;;;14.90;99.90;;;;;;5136628;27;20027;-67
2021/10/09 12:05:32;;;;;;;32.97;18.58;;;14.90;99.90;;;;;;5136685;27;20035;-71
2021/10/09 12:08:15;;;;;;;27.73;17.35;;;15.00;99.90;;;;;;5136801;27;20015;-70
2021/10/09 12:10:41;;;;;;;24.67;16.90;;;15.10;99.90;;;;;;5136563;27;20068;-69
2021/10/09 12:13:07;;;;;;;29.55;17.30;;;15.10;99.90;;;;;;5136566;27;20391;-69
2021/10/09 12:15:33;;;;;;;23.55;16.35;;;15.20;99.90;;;;;;5138198;27;20457;-68
2021/10/09 12:18:02;;;;;;;23.58;16.85;;;15.20;99.90;;;;;;5137716;27;20047;-68
2021/10/09 12:20:27;;;;;;;28.73;17.52;;;15.30;99.90;;;;;;5119334;27;20077;-66
2021/10/09 12:22:55;;;;;;;29.17;18.90;;;15.30;99.90;;;;;;5138016;27;20024;-69
2021/10/09 12:25:26;;;;;;;26.75;17.20;;;15.30;99.90;;;;;;5136710;27;20098;-68
2021/10/09 12:28:01;;;;;;;26.27;17.17;;;15.50;99.90;;;;;;5136612;27;20019;-71
2021/10/09 12:30:35;;;;;;;26.33;17.25;;;15.50;99.90;;;;;;5136282;27;20033;-70
2021/10/09 12:33:01;;;;;;;25.60;15.98;;;15.50;99.90;;;;;;5136307;27;20153;-72
2021/10/09 12:35:33;;;;;;;28.63;17.60;;;15.50;99.90;;;;;;5119202;27;20062;-72
2021/10/09 12:38:10;;;;;;;27.85;18.67;;;15.50;99.90;;;;;;5119352;27;20117;-68
2021/10/09 12:40:48;;;;;;;31.33;18.75;;;15.50;99.90;;;;;;5119555;27;20035;-69
2021/10/09 12:43:18;;;;;;;27.83;17.70;;;15.50;99.90;;;;;;5136268;27;20019;-70
2021/10/09 12:45:44;;;;;;;26.75;16.75;;;15.50;99.90;;;;;;5118766;27;20481;-71
2021/10/09 12:48:10;;;;;;;31.65;17.33;;;15.50;99.90;;;;;;5118751;27;20110;-69
2021/10/09 12:50:39;;;;;;;31.15;17.55;;;15.50;99.90;;;;;;5136462;27;20020;-72
2021/10/09 12:53:05;;;;;;;28.15;17.60;;;15.50;99.90;;;;;;5118885;27;20367;-73
2021/10/09 12:55:35;;;;;;;32.00;16.88;;;15.50;99.90;;;;;;5136084;27;20027;-71
2021/10/09 12:58:08;;;;;;;25.65;18.00;;;15.50;99.90;;;;;;5119447;27;20023;-73
2021/10/09 13:00:34;;;;;;;25.97;17.83;;;15.50;99.90;;;;;;5118820;27;20031;-73
2021/10/09 13:03:00;;;;;;;28.27;17.50;;;15.50;99.90;;;;;;5119650;27;20113;-72
2021/10/09 13:05:28;;;;;;;31.45;17.13;;;15.50;99.90;;;;;;5136027;27;20059;-76
2021/10/09 13:08:00;;;;;;;26.92;17.25;;;15.50;99.90;;;;;;5118777;27;20022;-71
2021/10/09 13:10:27;;;;;;;29.60;17.95;;;15.50;99.90;;;;;;5119153;27;20054;-71
2021/10/09 13:12:53;;;;;;;25.33;17.15;;;15.50;99.90;;;;;;5118318;27;20122;-73
2021/10/09 13:15:19;;;;;;;25.95;16.88;;;15.60;99.90;;;;;;5135489;27;20452;-74
2021/10/09 13:17:45;;;;;;;28.33;16.70;;;15.60;99.90;;;;;;5118119;27;20087;-72
2021/10/09 13:20:11;;;;;;;28.65;16.77;;;15.60;99.90;;;;;;5135444;27;20031;-71
2021/10/09 13:22:37;;;;;;;26.30;17.75;;;15.60;99.90;;;;;;5118204;27;20489;-71
2021/10/09 13:25:03;;;;;;;32.08;17.55;;;15.60;99.90;;;;;;5135354;27;20038;-66
2021/10/09 13:27:28;;;;;;;25.20;16.77;;;15.70;99.90;;;;;;5118309;27;20019;-74
2021/10/09 13:29:54;;;;;;;27.75;17.70;;;15.70;99.90;;;;;;5117894;27;20034;-69
2021/10/09 13:32:19;;;;;;;28.20;16.85;;;15.80;99.90;;;;;;5136813;27;20102;-68
2021/10/09 13:34:45;;;;;;;34.58;18.83;;;15.70;99.90;;;;;;5136121;27;20037;-69
2021/10/09 13:37:19;;;;;;;29.13;17.27;;;15.70;99.90;;;;;;5134944;27;20489;-70
2021/10/09 13:39:45;;;;;;;27.25;18.52;;;15.70;99.90;;;;;;5134645;27;20423;-70
2021/10/09 13:42:11;;;;;;;31.20;17.60;;;15.70;99.90;;;;;;5117364;27;20027;-68
2021/10/09 13:44:36;;;;;;;29.17;17.98;;;15.70;99.90;;;;;;5135728;27;20392;-70
2021/10/09 13:47:02;;;;;;;27.92;16.90;;;15.70;99.90;;;;;;5135856;27;20023;-68
2021/10/09 13:49:28;;;;;;;25.80;18.40;;;15.70;99.90;;;;;;5134782;27;20058;-69
2021/10/09 13:51:53;;;;;;;23.88;17.38;;;15.60;99.90;;;;;;5135087;27;20027;-69
2021/10/09 13:54:19;;;;;;;23.75;16.38;;;15.60;99.90;;;;;;5135829;27;20102;-70
2021/10/09 13:56:44;;;;;;;27.90;17.40;;;15.60;99.90;;;;;;5134812;27;20034;-71
2021/10/09 13:59:10;;;;;;;27.92;16.90;;;15.60;99.90;;;;;;5134444;27;20015;-68
2021/10/09 14:01:35;;;;;;;29.23;18.48;;;15.70;99.90;;;;;;5117287;27;20023;-66
2021/10/09 14:04:01;;;;;;;39.13;18.63;;;15.60;99.90;;;;;;5117101;27;20027;-67
2021/10/09 14:06:27;;;;;;;28.08;17.67;;;15.70;99.90;;;;;;5135399;27;20106;-71
2021/10/09 14:08:53;;;;;;;32.60;17.15;;;15.70;99.90;;;;;;5134146;27;20473;-71
2021/10/09 14:11:20;;;;;;;30.17;17.95;;;15.70;99.90;;;;;;5135728;27;20019;-71
2021/10/09 14:13:45;;;;;;;35.38;17.17;;;15.90;99.90;;;;;;5133246;27;20027;-71
2021/10/09 14:16:11;;;;;;;27.83;17.92;;;16.00;99.90;;;;;;5134954;27;20020;-72
2021/10/09 14:18:37;;;;;;;30.08;18.83;;;16.00;99.90;;;;;;5133950;27;20473;-71
2021/10/09 14:21:03;;;;;;;27.17;17.00;;;15.90;99.90;;;;;;5133962;27;20125;-69
2021/10/09 14:23:28;;;;;;;29.52;20.65;;;15.90;99.90;;;;;;5135148;27;20137;-72
2021/10/09 14:25:54;;;;;;;31.50;19.08;;;15.80;99.90;;;;;;5135191;27;20130;-70
2021/10/09 14:28:20;;;;;;;26.67;17.25;;;15.70;99.90;;;;;;5134259;27;20019;-68
2021/10/09 14:30:46;;;;;;;35.03;18.52;;;15.70;99.90;;;;;;5135158;27;20381;-71
2021/10/09 14:33:11;;;;;;;28.17;17.33;;;15.70;99.90;;;;;;5135109;27;20022;-69
2021/10/09 14:35:37;;;;;;;25.73;18.05;;;15.70;99.90;;;;;;5134599;27;20430;-70
2021/10/09 14:38:04;;;;;;;35.85;21.33;;;15.70;99.90;;;;;;5135093;27;20055;-74
2021/10/09 14:40:29;;;;;;;31.40;18.27;;;15.70;99.90;;;;;;5133861;27;20115;-71
2021/10/09 14:42:55;;;;;;;33.70;19.48;;;15.70;99.90;;;;;;5099411;27;20070;-71
2021/10/09 14:45:22;;;;;;;26.02;17.17;;;15.60;99.90;;;;;;5133807;27;20035;-71